createdAt,value
2018-07-24T00:02:15.833Z,25.40
2018-07-24T00:04:45.654Z,25.40
2018-07-24T00:07:15.578Z,25.40
2018-07-24T00:09:45.372Z,25.40
2018-07-24T00:12:15.217Z,25.40
2018-07-24T00:14:45.032Z,25.40
2018-07-24T00:17:14.843Z,25.20
2018-07-24T00:19:44.655Z,25.10
2018-07-24T00:22:14.576Z,25.10
2018-07-24T00:24:44.331Z,25.10
2018-07-24T00:27:14.792Z,25.10
2018-07-24T00:29:44.634Z,25.00
2018-07-24T00:32:14.428Z,24.90
2018-07-24T00:34:44.219Z,25.00
2018-07-24T00:37:14.012Z,25.00
2018-07-24T00:39:43.794Z,25.00
2018-07-24T00:44:42.941Z,24.90
2018-07-24T00:47:12.733Z,24.80
2018-07-24T00:49:42.536Z,24.70
2018-07-24T00:54:41.648Z,24.70
2018-07-24T00:57:13.208Z,24.70
2018-07-24T00:59:43.091Z,24.60
2018-07-24T01:02:12.871Z,24.60
2018-07-24T01:04:42.675Z,24.60
2018-07-24T01:07:12.441Z,24.60
2018-07-24T01:09:42.259Z,24.60
2018-07-24T01:12:12.088Z,24.60
2018-07-24T01:14:41.894Z,24.60
2018-07-24T01:19:41.043Z,24.60
2018-07-24T01:22:10.813Z,24.60
2018-07-24T01:24:41.352Z,24.60
2018-07-24T01:27:11.195Z,24.50
2018-07-24T01:29:40.977Z,24.60
2018-07-24T01:32:10.792Z,24.50
2018-07-24T01:34:40.556Z,24.50
2018-07-24T01:37:10.325Z,24.40
2018-07-24T01:39:40.100Z,24.40
2018-07-24T01:42:09.885Z,24.40
2018-07-24T01:47:08.949Z,24.40
2018-07-24T01:49:38.793Z,24.40
2018-07-24T01:52:08.608Z,24.40
2018-07-24T01:54:38.355Z,24.30
2018-07-24T01:57:08.445Z,24.30
2018-07-24T01:59:38.216Z,24.30
2018-07-24T02:02:08.012Z,24.20
2018-07-24T02:04:37.776Z,24.20
2018-07-24T02:07:07.608Z,24.20
2018-07-24T02:09:37.505Z,24.10
2018-07-24T02:12:07.303Z,24.10
2018-07-24T02:14:37.068Z,24.10
2018-07-24T02:17:07.172Z,24.10
2018-07-24T02:19:36.937Z,24.00
2018-07-24T02:22:07.696Z,24.10
2018-07-24T02:24:37.593Z,24.10
2018-07-24T02:27:07.517Z,24.10
2018-07-24T02:29:38.247Z,24.20
2018-07-24T02:32:08.191Z,24.20
2018-07-24T02:34:38.182Z,24.20
2018-07-24T02:37:08.088Z,24.30
2018-07-24T02:39:38.463Z,24.20
2018-07-24T02:42:08.313Z,24.10
2018-07-24T02:44:38.093Z,24.10
2018-07-24T02:47:07.916Z,24.20
2018-07-24T02:49:37.740Z,24.20
2018-07-24T02:52:07.977Z,24.20
2018-07-24T02:54:38.032Z,24.20
2018-07-24T02:57:07.941Z,24.10
2018-07-24T02:59:37.704Z,24.10
2018-07-24T03:02:08.222Z,24.10
2018-07-24T03:04:38.033Z,24.10
2018-07-24T03:07:07.873Z,24.10
2018-07-24T03:09:37.644Z,24.00
2018-07-24T03:12:07.461Z,24.00
2018-07-24T03:14:37.236Z,23.90
2018-07-24T03:17:07.092Z,23.80
2018-07-24T03:19:36.835Z,23.70
2018-07-24T03:22:06.646Z,23.60
2018-07-24T03:24:36.417Z,23.60
2018-07-24T03:27:06.989Z,23.50
2018-07-24T03:29:36.796Z,23.50
2018-07-24T03:32:06.768Z,23.50
2018-07-24T03:34:36.792Z,23.60
2018-07-24T03:37:06.644Z,23.50
2018-07-24T03:39:36.496Z,23.60
2018-07-24T03:42:06.494Z,23.50
2018-07-24T03:52:05.068Z,23.50
2018-07-24T03:54:34.836Z,23.50
2018-07-24T03:57:04.644Z,23.50
2018-07-24T03:59:34.469Z,23.50
2018-07-24T04:02:04.267Z,23.50
2018-07-24T04:04:34.057Z,23.50
2018-07-24T04:07:03.997Z,23.40
2018-07-24T04:09:33.807Z,23.30
2018-07-24T04:12:03.605Z,23.30
2018-07-24T04:14:33.388Z,23.40
2018-07-24T04:17:03.163Z,23.30
2018-07-24T04:19:33.064Z,23.30
2018-07-24T04:22:02.889Z,23.30
2018-07-24T04:24:32.687Z,23.30
2018-07-24T04:27:03.294Z,23.40
2018-07-24T04:32:02.598Z,23.30
2018-07-24T04:34:32.512Z,23.30
2018-07-24T04:37:02.968Z,23.40
2018-07-24T04:39:32.858Z,23.40
2018-07-24T04:42:02.703Z,23.30
2018-07-24T04:44:32.453Z,23.30
2018-07-24T04:49:31.507Z,23.40
2018-07-24T04:52:01.328Z,23.40
2018-07-24T04:54:31.196Z,23.50
2018-07-24T04:57:01.505Z,23.50
2018-07-24T04:59:31.372Z,23.60
2018-07-24T05:02:01.189Z,23.70
2018-07-24T05:04:30.988Z,23.70
2018-07-24T05:07:00.729Z,23.70
2018-07-24T05:09:30.515Z,23.70
2018-07-24T05:12:00.313Z,23.70
2018-07-24T05:14:30.115Z,23.60
2018-07-24T05:16:59.899Z,23.70
2018-07-24T05:19:29.746Z,23.70
2018-07-24T05:21:59.574Z,23.80
2018-07-24T05:24:29.374Z,23.80
2018-07-24T05:26:59.201Z,23.90
2018-07-24T05:29:30.079Z,23.90
2018-07-24T05:31:59.861Z,23.90
2018-07-24T05:34:29.644Z,23.90
2018-07-24T05:37:00.348Z,24.00
2018-07-24T05:39:30.156Z,24.00
2018-07-24T05:41:59.976Z,24.00
2018-07-24T05:44:29.864Z,24.00
2018-07-24T05:46:59.692Z,24.00
2018-07-24T05:49:29.537Z,23.90
2018-07-24T05:51:59.944Z,24.00
2018-07-24T05:54:29.774Z,24.10
2018-07-24T05:56:59.507Z,24.10
2018-07-24T05:59:29.320Z,24.20
2018-07-24T06:04:29.268Z,24.30
2018-07-24T06:06:59.056Z,24.30
2018-07-24T06:09:28.876Z,24.30
2018-07-24T06:11:58.708Z,24.40
2018-07-24T06:14:28.632Z,24.30
2018-07-24T06:16:58.374Z,24.20
2018-07-24T06:19:28.108Z,24.20
2018-07-24T06:21:58.136Z,24.20
2018-07-24T06:24:27.945Z,24.20
2018-07-24T06:29:27.042Z,24.40
2018-07-24T06:31:56.865Z,24.40
2018-07-24T06:34:27.438Z,24.60
2018-07-24T06:36:57.344Z,24.70
2018-07-24T06:39:27.120Z,24.80
2018-07-24T06:41:57.372Z,24.80
2018-07-24T06:44:27.146Z,24.80
2018-07-24T06:46:56.938Z,24.90
2018-07-24T06:49:26.734Z,25.00
2018-07-24T06:51:56.550Z,25.10
2018-07-24T06:54:26.290Z,25.10
2018-07-24T06:56:56.145Z,25.30
2018-07-24T06:59:26.513Z,25.40
2018-07-24T07:01:56.965Z,25.50
2018-07-24T07:04:26.791Z,25.50
2018-07-24T07:06:57.552Z,25.60
2018-07-24T07:09:27.310Z,25.80
2018-07-24T07:11:57.092Z,25.90
2018-07-24T07:14:26.887Z,26.00
2018-07-24T07:16:56.742Z,26.10
2018-07-24T07:19:26.560Z,26.20
2018-07-24T07:21:56.371Z,26.30
2018-07-24T07:24:26.221Z,26.30
2018-07-24T07:26:56.037Z,26.40
2018-07-24T07:29:25.825Z,26.40
2018-07-24T07:31:55.666Z,26.60
2018-07-24T07:34:26.501Z,26.70
2018-07-24T07:36:56.307Z,26.80
2018-07-24T07:39:26.140Z,26.80
2018-07-24T07:41:55.905Z,27.00
2018-07-24T07:44:25.697Z,27.20
2018-07-24T07:46:55.476Z,27.30
2018-07-24T07:49:25.985Z,27.20
2018-07-24T07:51:55.825Z,27.30
2018-07-24T07:56:55.004Z,27.60
2018-07-24T07:59:24.969Z,27.80
2018-07-24T08:01:54.986Z,27.70
2018-07-24T08:04:25.837Z,27.70
2018-07-24T08:06:55.487Z,28.00
2018-07-24T08:09:25.301Z,28.30
2018-07-24T08:11:55.778Z,28.40
2018-07-24T08:14:25.617Z,28.50
2018-07-24T08:16:55.556Z,28.50
2018-07-24T08:19:25.315Z,28.50
2018-07-24T08:21:55.118Z,28.60
2018-07-24T08:24:24.875Z,28.80
2018-07-24T08:26:54.740Z,29.00
2018-07-24T08:29:24.565Z,29.10
2018-07-24T08:31:54.396Z,29.20
2018-07-24T08:36:53.981Z,29.60
2018-07-24T08:39:23.745Z,29.40
2018-07-24T08:44:22.998Z,29.30
2018-07-24T08:46:52.824Z,29.70
2018-07-24T08:49:22.618Z,30.20
2018-07-24T08:51:52.479Z,30.50
2018-07-24T08:54:22.948Z,30.50
2018-07-24T08:56:53.192Z,31.00
2018-07-24T08:59:23.080Z,31.50
2018-07-24T09:01:53.452Z,32.10
2018-07-24T09:04:23.265Z,32.80
2018-07-24T09:06:53.122Z,33.40
2018-07-24T09:22:28.520Z,33.70
2018-07-24T09:24:58.316Z,33.90
2018-07-24T09:27:28.657Z,34.50
2018-07-24T09:32:27.855Z,37.00
2018-07-24T09:34:57.668Z,38.00
2018-07-24T09:42:27.243Z,40.40
2018-07-24T09:44:57.360Z,42.00
2018-07-24T09:47:27.885Z,42.80
2018-07-24T09:49:57.842Z,43.70
2018-07-24T09:52:27.755Z,44.30
2018-07-24T09:54:57.632Z,44.70
2018-07-24T09:57:27.441Z,45.30
2018-07-24T09:59:57.241Z,45.40
2018-07-24T10:02:27.930Z,45.20
2018-07-24T10:04:57.808Z,45.20
2018-07-24T10:09:56.911Z,45.00
2018-07-24T10:12:26.724Z,45.30
2018-07-24T10:14:57.160Z,45.80
2018-07-24T10:17:27.464Z,45.70
2018-07-24T10:19:57.918Z,45.80
2018-07-24T10:22:29.049Z,45.50
2018-07-24T10:24:58.928Z,45.90
2018-07-24T10:27:29.373Z,45.70
2018-07-24T10:29:59.207Z,45.10
2018-07-24T10:32:28.987Z,45.50
2018-07-24T10:34:58.825Z,45.90
2018-07-24T10:37:28.878Z,45.20
2018-07-24T10:39:58.807Z,45.30
2018-07-24T10:42:28.963Z,45.30
2018-07-24T10:44:59.461Z,45.10
2018-07-24T10:47:29.228Z,44.30
2018-07-24T10:49:59.120Z,44.10
2018-07-24T10:52:29.727Z,44.20
2018-07-24T10:54:59.513Z,44.20
2018-07-24T10:57:30.432Z,44.50
2018-07-24T11:00:00.230Z,44.30
2018-07-24T11:02:30.179Z,44.70
2018-07-24T11:05:00.019Z,44.20
2018-07-24T11:07:30.505Z,43.60
2018-07-24T11:10:00.290Z,43.50
2018-07-24T11:12:30.173Z,44.20
2018-07-24T11:15:00.182Z,44.70
2018-07-24T11:17:29.978Z,46.10
2018-07-24T11:19:59.856Z,46.60
2018-07-24T11:22:29.805Z,46.60
2018-07-24T11:24:59.422Z,46.80
2018-07-24T11:27:29.958Z,46.80
2018-07-24T11:30:00.057Z,45.70
2018-07-24T11:34:59.549Z,45.10
2018-07-24T11:37:29.372Z,45.80
2018-07-24T11:42:28.474Z,46.90
2018-07-24T11:44:59.087Z,46.10
2018-07-24T11:47:28.909Z,46.00
2018-07-24T11:49:58.682Z,45.90
2018-07-24T11:52:28.539Z,45.20
2018-07-24T11:54:58.857Z,45.00
2018-07-24T11:57:28.662Z,45.50
2018-07-24T11:59:58.563Z,45.50
2018-07-24T12:02:28.432Z,45.70
2018-07-24T12:04:58.223Z,45.60
2018-07-24T12:07:27.990Z,45.20
2018-07-24T12:09:57.781Z,45.60
2018-07-24T12:12:27.764Z,45.70
2018-07-24T12:14:57.760Z,44.80
2018-07-24T12:17:27.471Z,44.40
2018-07-24T12:19:57.392Z,44.10
2018-07-24T12:22:27.176Z,42.50
2018-07-24T12:24:57.450Z,41.20
2018-07-24T12:27:27.221Z,40.10
2018-07-24T12:29:57.101Z,39.10
2018-07-24T12:32:26.884Z,38.40
2018-07-24T12:34:56.741Z,37.60
2018-07-24T12:37:29.034Z,36.70
2018-07-24T12:39:59.000Z,36.20
2018-07-24T12:42:28.977Z,35.80
2018-07-24T12:44:59.201Z,35.50
2018-07-24T12:47:29.021Z,35.30
2018-07-24T12:49:58.851Z,35.00
2018-07-24T12:52:28.788Z,34.90
2018-07-24T12:54:59.274Z,34.80
2018-07-24T12:57:29.080Z,34.70
2018-07-24T12:59:58.947Z,34.50
2018-07-24T13:02:28.770Z,34.50
2018-07-24T13:04:59.217Z,34.40
2018-07-24T13:07:29.601Z,34.50
2018-07-24T13:09:59.477Z,34.60
2018-07-24T13:12:29.182Z,34.60
2018-07-24T13:14:58.982Z,34.60
2018-07-24T13:17:30.552Z,34.60
2018-07-24T13:20:00.340Z,34.80
2018-07-24T13:22:30.722Z,34.90
2018-07-24T13:25:01.517Z,35.00
2018-07-24T13:30:00.770Z,35.10
2018-07-24T13:32:30.652Z,35.00
2018-07-24T13:35:00.422Z,34.90
2018-07-24T13:37:30.386Z,34.60
2018-07-24T13:40:00.139Z,34.40
2018-07-24T13:42:30.581Z,34.50
2018-07-24T13:45:00.427Z,34.30
2018-07-24T13:47:30.919Z,34.20
2018-07-24T13:50:00.726Z,34.40
2018-07-24T13:52:30.644Z,34.60
2018-07-24T13:55:00.452Z,34.60
2018-07-24T13:57:30.346Z,34.80
2018-07-24T14:00:00.208Z,35.00
2018-07-24T14:02:30.045Z,35.10
2018-07-24T14:07:29.656Z,35.00
2018-07-24T14:09:59.512Z,35.00
2018-07-24T14:12:29.680Z,34.80
2018-07-24T14:14:59.530Z,34.80
2018-07-24T14:17:29.964Z,34.80
2018-07-24T14:19:59.766Z,35.00
2018-07-24T14:22:30.369Z,35.10
2018-07-24T14:25:00.144Z,35.30
2018-07-24T14:27:30.025Z,35.40
2018-07-24T14:29:59.844Z,35.50
2018-07-24T14:32:29.724Z,35.60
2018-07-24T14:37:29.701Z,35.70
2018-07-24T14:39:59.505Z,35.50
2018-07-24T14:42:29.946Z,35.30
2018-07-24T14:44:59.841Z,35.20
2018-07-24T14:47:29.959Z,35.30
2018-07-24T14:49:59.726Z,35.60
2018-07-24T14:52:29.527Z,35.70
2018-07-24T14:54:59.498Z,35.80
2018-07-24T14:57:29.414Z,35.90
2018-07-24T14:59:59.316Z,35.80
2018-07-24T15:02:29.237Z,35.70
2018-07-24T15:04:59.020Z,35.70
2018-07-24T15:07:28.980Z,35.60
2018-07-24T15:09:59.384Z,35.40
2018-07-24T15:12:29.197Z,35.30
2018-07-24T15:14:59.395Z,35.40
2018-07-24T15:17:29.311Z,35.40
2018-07-24T15:19:59.208Z,35.20
2018-07-24T15:22:29.023Z,35.20
2018-07-24T15:27:28.902Z,35.60
2018-07-24T15:29:58.778Z,35.60
2018-07-24T15:32:28.578Z,35.60
2018-07-24T15:34:58.483Z,35.60
2018-07-24T15:37:28.225Z,35.60
2018-07-24T15:39:58.038Z,35.70
2018-07-24T15:42:27.849Z,35.40
2018-07-24T15:44:58.830Z,35.30
2018-07-24T15:47:29.493Z,35.30
2018-07-24T15:50:00.625Z,35.40
2018-07-24T15:52:30.487Z,35.50
2018-07-24T15:55:00.357Z,35.50
2018-07-24T15:57:30.172Z,35.40
2018-07-24T16:00:00.108Z,35.20
2018-07-24T16:02:29.918Z,35.10
2018-07-24T16:04:59.785Z,35.00
2018-07-24T16:07:29.811Z,34.80
2018-07-24T16:09:59.674Z,34.70
2018-07-24T16:12:29.470Z,34.80
2018-07-24T16:14:59.291Z,34.90
2018-07-24T16:17:29.241Z,35.00
2018-07-24T16:19:59.016Z,34.90
2018-07-24T16:22:28.904Z,34.80
2018-07-24T16:24:59.085Z,34.80
2018-07-24T16:27:28.962Z,34.90
2018-07-24T16:29:58.971Z,35.00
2018-07-24T16:32:29.142Z,35.00
2018-07-24T16:34:58.970Z,35.10
2018-07-24T16:37:28.816Z,35.00
2018-07-24T16:39:59.264Z,34.90
2018-07-24T16:42:29.269Z,35.00
2018-07-24T16:44:59.213Z,35.00
2018-07-24T16:47:29.418Z,35.00
2018-07-24T16:49:59.265Z,35.00
2018-07-24T16:52:29.762Z,35.00
2018-07-24T16:54:59.605Z,34.90
2018-07-24T16:57:29.425Z,34.90
2018-07-24T16:59:59.353Z,34.90
2018-07-24T17:02:30.094Z,34.90
2018-07-24T17:05:00.672Z,34.80
2018-07-24T17:07:30.708Z,34.60
2018-07-24T17:10:01.016Z,34.40
2018-07-24T17:12:33.651Z,34.30
2018-07-24T17:15:03.539Z,34.30
2018-07-24T17:17:33.376Z,34.30
2018-07-24T17:20:03.340Z,34.30
2018-07-24T17:22:33.728Z,34.30
2018-07-24T17:25:03.612Z,34.20
2018-07-24T17:27:33.630Z,34.20
2018-07-24T17:30:04.209Z,34.20
2018-07-24T17:32:33.982Z,34.20
2018-07-24T17:35:03.902Z,34.20
2018-07-24T17:37:33.741Z,34.20
2018-07-24T17:40:03.622Z,34.20
2018-07-24T17:42:33.543Z,34.20
2018-07-24T17:45:03.395Z,34.10
2018-07-24T17:47:33.227Z,34.10
2018-07-24T17:50:03.180Z,33.90
2018-07-24T17:52:32.987Z,33.90
2018-07-24T17:55:02.887Z,33.90
2018-07-24T17:57:32.736Z,33.90
2018-07-24T18:00:04.847Z,33.80
2018-07-24T18:02:34.734Z,33.70
2018-07-24T18:05:04.947Z,33.60
2018-07-24T18:07:34.939Z,33.60
2018-07-24T18:10:05.075Z,33.60
2018-07-24T18:12:34.925Z,33.50
2018-07-24T18:15:04.933Z,33.50
2018-07-24T18:17:34.923Z,33.40
2018-07-24T18:20:05.237Z,33.30
2018-07-24T18:22:35.182Z,33.20
2018-07-24T18:25:06.621Z,33.20
2018-07-24T18:27:36.412Z,33.20
2018-07-24T18:30:06.539Z,33.10
2018-07-24T18:32:36.737Z,33.10
2018-07-24T18:35:06.653Z,33.00
2018-07-24T18:42:35.092Z,32.80
2018-07-24T18:45:05.033Z,32.80
2018-07-24T18:47:34.824Z,32.70
2018-07-24T18:52:34.013Z,32.60
2018-07-24T18:55:04.928Z,32.60
2018-07-24T18:57:34.778Z,32.50
2018-07-24T19:00:05.004Z,32.40
2018-07-24T19:02:35.289Z,32.40
2018-07-24T19:05:06.355Z,32.30
2018-07-24T19:07:36.302Z,32.20
2018-07-24T19:10:06.321Z,32.20
2018-07-24T19:12:38.379Z,32.10
2018-07-24T19:15:12.237Z,32.10
2018-07-24T19:20:18.914Z,31.90
2018-07-24T19:22:49.482Z,31.90
2018-07-24T19:25:19.336Z,31.90
2018-07-24T19:27:49.210Z,31.90
2018-07-24T19:30:19.042Z,31.80
2018-07-24T19:32:49.322Z,31.80
2018-07-24T19:35:19.205Z,31.70
2018-07-24T19:37:49.037Z,31.70
2018-07-24T19:40:18.916Z,31.60
2018-07-24T19:42:48.725Z,31.60
2018-07-24T19:45:19.308Z,31.50
2018-07-24T19:47:49.241Z,31.60
2018-07-24T19:50:20.213Z,31.50
2018-07-24T19:52:50.286Z,31.50
2018-07-24T19:55:20.155Z,31.50
2018-07-24T19:57:50.103Z,31.40
2018-07-24T20:02:50.011Z,31.40
2018-07-24T20:05:20.496Z,31.30
2018-07-24T20:07:50.312Z,31.30
2018-07-24T20:10:20.232Z,31.20
2018-07-24T20:12:50.360Z,31.20
2018-07-24T20:15:21.385Z,31.10
2018-07-24T20:20:20.516Z,31.00
2018-07-24T20:22:52.612Z,31.00
2018-07-24T20:25:23.260Z,31.00
2018-07-24T20:27:53.041Z,30.90
2018-07-24T20:30:22.885Z,30.90
2018-07-24T20:32:52.713Z,30.90
2018-07-24T20:35:23.490Z,30.80
2018-07-24T20:37:53.397Z,30.80
2018-07-24T20:40:23.643Z,30.70
2018-07-24T20:42:53.464Z,30.60
2018-07-24T20:45:24.024Z,30.60
2018-07-24T20:47:54.145Z,30.60
2018-07-24T20:52:53.864Z,30.50
2018-07-24T20:55:23.909Z,30.40
2018-07-24T20:57:54.072Z,30.30
2018-07-24T21:00:24.041Z,30.10
2018-07-24T21:02:53.970Z,29.90
2018-07-24T21:05:23.955Z,29.70
2018-07-24T21:07:55.005Z,29.60
2018-07-24T21:10:24.883Z,29.60
2018-07-24T21:12:54.756Z,29.70
2018-07-24T21:15:25.155Z,29.60
2018-07-24T21:17:55.099Z,29.60
2018-07-24T21:20:24.971Z,29.60
2018-07-24T21:22:54.944Z,29.60
2018-07-24T21:27:54.294Z,29.80
2018-07-24T21:32:53.638Z,29.80
2018-07-24T21:35:23.549Z,29.80
2018-07-24T21:37:53.456Z,29.80
2018-07-24T21:40:23.363Z,29.70
2018-07-24T21:42:53.365Z,29.60
2018-07-24T21:45:23.871Z,29.60
2018-07-24T21:47:53.800Z,29.50
2018-07-24T21:50:23.667Z,29.50
2018-07-24T21:52:53.449Z,29.40
2018-07-24T21:55:23.326Z,29.40
2018-07-24T21:57:53.389Z,29.30
2018-07-24T22:02:52.500Z,29.20
2018-07-24T22:05:22.293Z,29.10
2018-07-24T22:07:52.221Z,29.10
2018-07-24T22:10:22.706Z,29.00
2018-07-24T22:12:53.519Z,29.00
2018-07-24T22:15:24.500Z,29.00
2018-07-24T22:17:54.771Z,29.00
2018-07-24T22:20:25.145Z,29.00
2018-07-24T22:22:54.916Z,29.00
2018-07-24T22:25:24.669Z,29.00
2018-07-24T22:27:55.081Z,29.00
2018-07-24T22:30:24.881Z,29.00
2018-07-24T22:32:54.692Z,28.80
2018-07-24T22:35:24.568Z,28.70
2018-07-24T22:37:54.349Z,28.80
2018-07-24T22:40:24.144Z,28.80
2018-07-24T22:42:54.604Z,28.70
2018-07-24T22:45:24.380Z,28.60
2018-07-24T22:47:54.217Z,28.60
2018-07-24T22:50:24.029Z,28.60
2018-07-24T22:52:53.774Z,28.60
2018-07-24T22:55:23.678Z,28.60
2018-07-24T22:57:53.742Z,28.50
2018-07-24T23:00:23.538Z,28.50
2018-07-24T23:02:53.364Z,28.40
2018-07-24T23:05:23.243Z,28.30
2018-07-24T23:07:53.784Z,28.30
2018-07-24T23:10:27.760Z,28.30
2018-07-24T23:12:58.221Z,28.10
2018-07-24T23:15:28.195Z,28.10
2018-07-24T23:17:57.956Z,28.20
2018-07-24T23:22:57.904Z,28.00
2018-07-24T23:25:27.673Z,28.00
2018-07-24T23:27:57.481Z,28.00
2018-07-24T23:30:28.437Z,28.00
2018-07-24T23:32:58.703Z,27.90
2018-07-24T23:35:28.464Z,27.90
2018-07-24T23:37:58.273Z,27.80
2018-07-24T23:40:28.084Z,27.70
2018-07-24T23:42:58.511Z,27.60
2018-07-24T23:45:28.330Z,27.60
2018-07-24T23:50:27.442Z,27.50
2018-07-24T23:52:57.228Z,27.30
2018-07-24T23:55:26.999Z,27.20
2018-07-24T23:57:56.813Z,27.20
